Time;durP1;ratioP1;P1;durP2;ratioP2;P2;SDS_P1;SDS_P2;PMS_P1;PMS_P2;Temp;Humidity;BMP_temperature;BMP_pressure;BME280_temperature;BME280_humidity;BME280_pressure;Samples;Min_cycle;Max_cycle;Signal;HPM_P1;HPM_P2
2023/06/30 00:03:31;;;;;;;5.95;4.60;;;;;;;21.73;59.14;98689.00;7187498;40;21309;31
2023/06/30 00:09:06;;;;;;;6.85;5.03;;;;;;;21.84;57.83;98690.84;7186168;40;21159;31
2023/06/30 00:14:25;;;;;;;8.73;4.60;;;;;;;21.99;57.99;98678.19;7199069;40;20336;31
2023/06/30 00:20:05;;;;;;;5.25;4.60;;;;;;;21.78;58.66;98676.22;7201421;40;21117;31
2023/06/30 00:25:24;;;;;;;6.00;4.50;;;;;;;21.71;58.99;98680.22;7236343;40;21104;31
2023/06/30 00:31:00;;;;;;;6.90;4.43;;;;;;;21.70;58.72;98670.31;7308595;39;21088;31
2023/06/30 00:36:36;;;;;;;7.40;5.00;;;;;;;21.69;58.64;98668.66;7285000;40;20257;31
2023/06/30 00:41:56;;;;;;;4.90;4.40;;;;;;;21.71;58.78;98675.56;7245624;40;21009;31
2023/06/30 00:47:34;;;;;;;8.10;4.43;;;;;;;21.60;59.27;98673.72;7205743;40;21187;31
2023/06/30 00:53:15;;;;;;;6.45;4.53;;;;;;;21.64;59.01;98658.44;7178996;40;21148;31
2023/06/30 00:58:45;;;;;;;8.45;4.65;;;;;;;21.84;58.65;98646.94;7202876;40;20281;31
2023/06/30 01:04:21;;;;;;;4.95;4.20;;;;;;;21.84;59.05;98655.16;7254424;40;20290;31
2023/06/30 01:09:58;;;;;;;6.62;4.75;;;;;;;21.83;58.86;98637.88;7231036;40;21202;31
2023/06/30 01:15:48;;;;;;;7.20;4.70;;;;;;;21.94;58.61;98628.72;7254972;40;20343;31
2023/06/30 01:26:28;;;;;;;5.87;4.22;;;;;;;21.92;59.32;98632.78;7194820;40;20258;31
2023/06/30 01:32:03;;;;;;;6.47;4.95;;;;;;;21.91;59.09;98620.13;7220790;40;21110;31
2023/06/30 01:37:38;;;;;;;7.75;5.07;;;;;;;21.93;58.91;98623.50;7219050;40;21261;31
2023/06/30 01:43:12;;;;;;;5.40;4.90;;;;;;;21.96;59.21;98625.72;7217304;40;20261;31
2023/06/30 01:48:49;;;;;;;6.50;5.30;;;;;;;21.87;59.40;98614.31;7178924;40;20263;31
2023/06/30 01:54:24;;;;;;;7.03;5.45;;;;;;;21.79;59.24;98619.41;7169398;40;21117;31
2023/06/30 02:00:00;;;;;;;6.70;5.22;;;;;;;21.85;60.26;98610.19;7185437;40;21127;31
2023/06/30 02:05:20;;;;;;;6.45;5.30;;;;;;;22.02;58.91;98613.75;7156769;40;20263;31
2023/06/30 02:10:40;;;;;;;8.57;5.50;;;;;;;22.14;58.70;98610.84;7113774;40;21171;31
2023/06/30 02:16:17;;;;;;;8.15;5.35;;;;;;;22.14;59.45;98603.47;7158818;40;21122;31
2023/06/30 02:21:37;;;;;;;7.72;5.28;;;;;;;22.04;59.51;98603.31;7162855;40;20261;31
2023/06/30 02:26:58;;;;;;;7.32;5.62;;;;;;;22.00;59.71;98602.16;7214071;40;21022;31
2023/06/30 02:32:37;;;;;;;6.78;4.97;;;;;;;22.01;60.41;98614.81;7180913;40;21150;31
2023/06/30 02:37:57;;;;;;;6.50;5.60;;;;;;;21.99;60.13;98603.25;7227340;40;21181;31
2023/06/30 02:43:17;;;;;;;8.32;6.05;;;;;;;22.07;59.56;98605.56;7294990;40;21052;31
2023/06/30 02:48:53;;;;;;;7.25;6.30;;;;;;;22.03;60.45;98609.88;7284818;39;21168;31
2023/06/30 02:54:10;;;;;;;7.10;6.20;;;;;;;22.09;59.77;98611.63;7032989;40;20242;31
2023/06/30 02:59:30;;;;;;;9.55;6.40;;;;;;;22.14;59.40;98613.59;7235221;40;20276;31
2023/06/30 03:05:04;;;;;;;10.63;7.68;;;;;;;22.09;59.88;98617.12;7293409;40;21106;31
2023/06/30 03:15:43;;;;;;;9.00;7.50;;;;;;;21.89;60.84;98606.69;7320015;39;21275;31
2023/06/30 03:26:23;;;;;;;12.15;7.18;;;;;;;21.97;59.43;98605.44;7258796;40;20272;31
2023/06/30 03:36:48;;;;;;;11.12;7.05;;;;;;;22.16;59.19;98617.75;7215107;40;20273;31
2023/06/30 03:42:21;;;;;;;8.93;7.18;;;;;;;22.06;59.97;98603.06;7242414;39;20335;31
2023/06/30 03:53:01;;;;;;;9.45;7.65;;;;;;;21.97;59.80;98591.72;7274009;40;21206;31
2023/06/30 04:03:41;;;;;;;10.73;7.73;;;;;;;22.08;59.92;98598.16;7278893;39;20616;31
2023/06/30 04:14:07;;;;;;;10.70;7.80;;;;;;;21.99;60.26;98600.50;7293977;39;20264;31
2023/06/30 04:24:45;;;;;;;10.77;7.87;;;;;;;22.12;59.81;98602.88;7338383;39;21183;31
2023/06/30 04:30:21;;;;;;;10.40;8.05;;;;;;;22.08;59.88;98601.72;7280466;40;20283;31
2023/06/30 04:35:43;;;;;;;8.65;7.62;;;;;;;22.19;59.21;98609.00;7273178;40;20316;31
2023/06/30 04:41:18;;;;;;;11.45;7.87;;;;;;;22.24;59.71;98613.75;7256115;40;21033;31
2023/06/30 04:46:57;;;;;;;10.27;7.72;;;;;;;22.20;60.68;98616.19;7235897;40;20284;31
2023/06/30 04:52:18;;;;;;;11.68;8.55;;;;;;;22.12;61.12;98622.09;7264763;40;20283;31
2023/06/30 04:57:55;;;;;;;10.90;8.37;;;;;;;22.17;61.11;98629.56;7295306;40;20417;31
2023/06/30 05:03:15;;;;;;;9.67;7.23;;;;;;;22.18;60.60;98626.56;7285529;40;20260;31
2023/06/30 05:08:39;;;;;;;8.50;6.05;;;;;;;22.24;59.88;98633.78;7275114;40;20303;31
2023/06/30 05:14:17;;;;;;;9.35;6.10;;;;;;;22.19;60.02;98636.47;7276954;40;21278;31
2023/06/30 05:19:39;;;;;;;6.75;5.97;;;;;;;22.32;59.06;98640.75;7221626;40;21103;31
2023/06/30 05:25:00;;;;;;;9.30;6.22;;;;;;;22.39;58.97;98638.63;7253575;40;20373;31
2023/06/30 05:30:35;;;;;;;12.98;6.62;;;;;;;22.44;59.09;98645.00;7242310;40;21172;31
2023/06/30 05:35:56;;;;;;;9.50;6.85;;;;;;;22.52;59.67;98638.22;7233545;40;20342;31
2023/06/30 05:41:30;;;;;;;13.40;7.57;;;;;;;22.60;59.10;98640.50;7256568;40;21127;31
2023/06/30 05:47:07;;;;;;;9.50;7.50;;;;;;;22.70;59.37;98646.16;7276981;40;21082;31
2023/06/30 05:52:41;;;;;;;10.05;7.25;;;;;;;22.87;59.17;98637.81;7197231;40;20639;31
2023/06/30 05:58:02;;;;;;;10.80;8.20;;;;;;;22.94;60.18;98646.69;7164762;40;21041;31
2023/06/30 06:03:38;;;;;;;14.87;8.80;;;;;;;23.00;60.25;98656.62;7161281;40;20412;31
2023/06/30 06:14:17;;;;;;;13.37;8.00;;;;;;;23.08;60.64;98669.91;7266398;40;20431;31
2023/06/30 06:24:58;;;;;;;13.70;8.53;;;;;;;22.85;62.41;98675.75;7278691;39;20245;31
2023/06/30 06:30:34;;;;;;;12.48;8.77;;;;;;;22.87;62.97;98696.38;7293314;40;21145;31
2023/06/30 06:36:09;;;;;;;13.13;8.73;;;;;;;22.91;62.32;98704.91;7207092;40;20254;31
2023/06/30 06:41:45;;;;;;;12.25;9.40;;;;;;;22.98;62.37;98712.97;7179151;40;20290;31
2023/06/30 06:47:40;;;;;;;13.20;9.75;;;;;;;23.00;62.74;98722.63;7182414;40;21340;31
2023/06/30 06:53:00;;;;;;;13.18;9.20;;;;;;;23.07;62.48;98719.69;7235058;40;21298;31
2023/06/30 07:03:41;;;;;;;12.50;9.90;;;;;;;23.15;61.91;98716.47;7286520;39;21307;31
2023/06/30 07:14:06;;;;;;;10.40;8.90;;;;;;;23.54;61.55;98715.22;7239982;40;21471;31
2023/06/30 07:24:43;;;;;;;12.60;9.37;;;;;;;23.51;60.02;98734.16;7289856;39;20301;31
2023/06/30 07:35:24;;;;;;;10.63;8.35;;;;;;;23.57;60.75;98736.69;7314286;39;20393;31
2023/06/30 07:41:01;;;;;;;10.85;8.45;;;;;;;23.51;61.24;98746.00;7276629;40;20268;31
2023/06/30 07:46:37;;;;;;;10.90;8.68;;;;;;;23.64;59.74;98736.50;7275629;40;20242;31
2023/06/30 07:51:57;;;;;;;12.13;8.27;;;;;;;23.59;60.41;98747.44;7195992;40;20239;31
2023/06/30 07:57:31;;;;;;;11.20;8.60;;;;;;;23.56;60.89;98750.72;7211272;40;21064;31
2023/06/30 08:02:51;;;;;;;12.20;9.10;;;;;;;23.40;60.41;98749.72;7206801;40;21114;31
2023/06/30 08:08:32;;;;;;;17.08;8.75;;;;;;;23.31;61.97;98743.84;7256790;40;20245;31
2023/06/30 08:14:06;;;;;;;11.68;8.48;;;;;;;23.38;61.23;98751.91;7185023;40;21163;31
2023/06/30 08:19:27;;;;;;;10.25;8.43;;;;;;;23.48;60.08;98751.19;7156769;40;21243;31
2023/06/30 08:25:02;;;;;;;12.90;9.15;;;;;;;23.46;60.41;98754.22;7137283;40;20247;31
2023/06/30 08:30:39;;;;;;;17.23;9.65;;;;;;;23.23;61.85;98755.31;7133374;40;20373;31
2023/06/30 08:41:18;;;;;;;12.83;9.33;;;;;;;23.29;60.98;98759.78;7264670;39;20402;31
2023/06/30 08:46:57;;;;;;;10.02;8.40;;;;;;;23.34;61.15;98754.31;7231610;40;21110;31
2023/06/30 08:52:33;;;;;;;11.15;8.38;;;;;;;23.40;61.98;98757.13;7205280;40;21059;31
2023/06/30 08:58:06;;;;;;;14.82;9.05;;;;;;;23.30;61.91;98746.88;7158748;40;21252;31
2023/06/30 09:03:45;;;;;;;10.93;8.85;;;;;;;23.32;62.18;98739.19;7174357;40;21425;31
2023/06/30 09:09:22;;;;;;;10.70;9.40;;;;;;;23.55;61.87;98740.81;7224501;40;21159;31
2023/06/30 09:14:58;;;;;;;13.13;10.38;;;;;;;23.62;62.17;98730.41;7232673;40;21113;31
2023/06/30 09:20:34;;;;;;;13.30;10.10;;;;;;;23.65;62.38;98740.91;7235461;40;20327;31
2023/06/30 09:26:09;;;;;;;12.43;9.30;;;;;;;23.65;62.23;98732.66;7216107;40;20263;31
2023/06/30 09:31:45;;;;;;;12.45;10.13;;;;;;;23.51;63.58;98743.25;7198559;40;21110;31
2023/06/30 09:37:20;;;;;;;18.50;13.30;;;;;;;23.23;64.70;98736.06;7187544;40;21076;31
2023/06/30 09:42:52;;;;;;;18.35;14.10;;;;;;;23.26;66.05;98738.28;7223809;40;20273;31
2023/06/30 09:48:28;;;;;;;20.00;14.00;;;;;;;23.12;66.33;98739.81;7254057;40;21010;31
2023/06/30 09:54:05;;;;;;;17.87;13.55;;;;;;;23.38;66.14;98737.31;7207037;40;21125;31
2023/06/30 09:59:41;;;;;;;18.40;14.30;;;;;;;23.58;65.58;98746.62;7196232;40;20355;31
2023/06/30 10:05:13;;;;;;;20.40;15.38;;;;;;;23.50;64.15;98749.84;7169844;40;21096;31
2023/06/30 10:10:49;;;;;;;20.83;15.55;;;;;;;23.51;64.29;98748.75;7214913;40;21485;31
2023/06/30 10:16:24;;;;;;;20.15;16.00;;;;;;;23.55;65.54;98749.06;7050157;40;20257;31
2023/06/30 10:22:00;;;;;;;21.27;16.62;;;;;;;23.54;65.43;98744.66;7264959;40;21148;31
2023/06/30 10:27:37;;;;;;;22.70;16.95;;;;;;;23.56;65.03;98757.06;7217435;40;21181;31
2023/06/30 10:32:58;;;;;;;21.90;16.80;;;;;;;23.49;66.57;98756.44;7285720;39;21066;31
2023/06/30 10:38:35;;;;;;;21.30;16.40;;;;;;;23.36;67.82;98765.06;7276230;40;20283;31
2023/06/30 10:44:29;;;;;;;20.24;15.60;;;;;;;23.27;69.45;98766.63;7189398;40;20418;31
2023/06/30 10:49:53;;;;;;;15.00;13.00;;;;;;;23.26;68.71;98760.28;7183117;40;21161;31
2023/06/30 10:55:26;;;;;;;16.60;12.90;;;;;;;23.21;69.59;98749.22;7183724;40;21249;31
2023/06/30 11:01:19;;;;;;;17.40;13.23;;;;;;;23.55;69.37;98746.31;7207562;40;21135;31
2023/06/30 11:06:55;;;;;;;17.30;14.00;;;;;;;23.59;68.57;98747.44;7193960;40;21092;31
2023/06/30 11:12:30;;;;;;;16.87;14.73;;;;;;;23.58;67.96;98740.28;7192937;40;20255;31
2023/06/30 11:18:10;;;;;;;18.35;14.80;;;;;;;23.33;67.07;98730.69;7190788;40;20371;31
2023/06/30 11:23:47;;;;;;;16.73;13.57;;;;;;;23.31;65.98;98730.09;7186286;40;21284;31
2023/06/30 11:29:23;;;;;;;18.02;14.00;;;;;;;23.13;65.20;98733.19;7182784;40;21123;31
2023/06/30 11:35:05;;;;;;;16.75;14.52;;;;;;;23.18;65.87;98735.19;7156274;40;21112;31
2023/06/30 11:40:35;;;;;;;15.60;13.27;;;;;;;23.14;66.01;98742.28;7156775;40;20317;31
2023/06/30 11:46:13;;;;;;;16.10;13.40;;;;;;;23.09;68.54;98754.06;7178617;40;21140;31
2023/06/30 11:51:48;;;;;;;17.73;14.07;;;;;;;22.99;68.70;98753.97;7205958;40;21273;31
2023/06/30 11:57:25;;;;;;;17.90;14.10;;;;;;;23.11;67.90;98756.56;7165689;40;20277;31
2023/06/30 12:03:00;;;;;;;15.82;13.85;;;;;;;23.41;67.68;98740.38;7088443;41;20376;31
2023/06/30 12:08:38;;;;;;;17.40;13.30;;;;;;;23.62;65.52;98746.91;7177988;40;21198;31
2023/06/30 12:14:13;;;;;;;15.30;13.07;;;;;;;23.92;64.31;98741.66;7207093;40;21168;31
2023/06/30 12:19:32;;;;;;;18.50;14.00;;;;;;;23.84;64.02;98744.06;7185074;40;21079;31
2023/06/30 12:25:11;;;;;;;17.55;12.88;;;;;;;23.75;63.37;98738.22;7236155;40;20305;31
2023/06/30 12:30:29;;;;;;;13.95;11.55;;;;;;;23.85;63.23;98746.56;7216254;40;21276;31
2023/06/30 12:36:07;;;;;;;16.83;10.93;;;;;;;23.82;62.01;98751.78;7222746;40;21146;31
2023/06/30 12:41:45;;;;;;;13.25;11.65;;;;;;;24.12;61.61;98750.06;7208747;40;21138;31
2023/06/30 12:47:20;;;;;;;12.77;11.18;;;;;;;24.49;58.79;98740.94;7285811;39;20302;31
2023/06/30 12:52:56;;;;;;;11.77;10.43;;;;;;;24.57;59.16;98737.69;7216186;40;21026;31
2023/06/30 12:58:33;;;;;;;12.60;10.30;;;;;;;24.92;56.82;98735.13;7238189;40;21106;31
2023/06/30 13:03:52;;;;;;;11.38;10.00;;;;;;;24.97;56.93;98731.50;7220891;40;21393;31
2023/06/30 13:09:27;;;;;;;10.77;9.38;;;;;;;25.41;55.48;98731.88;7273147;39;20277;31
2023/06/30 13:15:03;;;;;;;10.80;9.00;;;;;;;26.08;53.25;98725.28;7255403;40;21045;31
2023/06/30 13:20:23;;;;;;;9.98;8.90;;;;;;;25.73;52.20;98721.44;7185077;40;21176;31
2023/06/30 13:25:43;;;;;;;10.90;9.80;;;;;;;25.52;53.42;98722.53;7199895;40;21132;31
2023/06/30 13:31:21;;;;;;;12.10;9.60;;;;;;;25.49;52.62;98723.09;7206785;40;21277;31
2023/06/30 13:36:41;;;;;;;10.68;9.48;;;;;;;25.77;53.17;98716.19;7188136;40;21002;31
2023/06/30 13:42:16;;;;;;;11.68;9.05;;;;;;;25.72;51.97;98710.69;7252087;40;21176;31
2023/06/30 13:47:53;;;;;;;10.10;9.00;;;;;;;25.66;52.12;98709.88;7214977;40;21167;31
2023/06/30 13:53:29;;;;;;;11.17;9.93;;;;;;;25.66;52.20;98693.31;7203913;40;21096;31
2023/06/30 13:58:50;;;;;;;11.02;9.30;;;;;;;25.60;51.75;98701.84;7178510;40;21302;31
2023/06/30 14:04:26;;;;;;;13.07;9.38;;;;;;;25.34;51.86;98692.69;7205218;40;21076;31
2023/06/30 14:10:03;;;;;;;12.88;9.85;;;;;;;25.48;51.82;98685.53;7240640;39;20257;31
2023/06/30 14:15:22;;;;;;;10.50;9.40;;;;;;;25.61;52.35;98678.66;7196363;40;21214;31
2023/06/30 14:20:58;;;;;;;11.35;9.90;;;;;;;25.52;51.44;98672.84;7183552;40;21012;31
2023/06/30 14:26:31;;;;;;;10.90;9.27;;;;;;;25.45;51.80;98673.09;7105570;41;21190;31
2023/06/30 14:32:06;;;;;;;11.35;9.52;;;;;;;25.29;52.37;98667.84;7102886;41;21127;31
2023/06/30 14:42:47;;;;;;;11.37;9.60;;;;;;;25.04;52.44;98668.66;7205294;39;20301;31
2023/06/30 14:48:06;;;;;;;10.50;8.80;;;;;;;25.10;51.42;98665.63;7283486;40;20447;31
2023/06/30 14:53:42;;;;;;;11.53;9.50;;;;;;;25.06;51.65;98670.03;7282015;39;20295;31
2023/06/30 14:59:22;;;;;;;11.25;9.55;;;;;;;24.95;52.36;98660.09;7256869;40;21261;31
2023/06/30 15:04:58;;;;;;;13.48;9.77;;;;;;;25.04;52.29;98652.94;7278516;39;21229;31
2023/06/30 15:10:34;;;;;;;10.00;8.10;;;;;;;24.88;51.67;98651.25;7256987;40;21072;31
2023/06/30 15:21:04;;;;;;;11.10;8.60;;;;;;;25.09;51.74;98658.47;7181950;40;21152;31
2023/06/30 15:31:44;;;;;;;10.70;8.82;;;;;;;25.26;51.23;98658.22;7277278;39;20269;31
2023/06/30 15:37:19;;;;;;;8.32;7.25;;;;;;;25.26;50.72;98647.19;7248290;39;21076;31
2023/06/30 15:42:40;;;;;;;7.90;6.40;;;;;;;25.16;50.03;98666.47;7223678;40;21044;31
2023/06/30 15:48:17;;;;;;;6.60;5.20;;;;;;;24.96;50.02;98664.53;7279602;40;21243;31
2023/06/30 15:53:52;;;;;;;7.00;5.35;;;;;;;24.89;50.25;98660.34;7195069;40;20343;31
2023/06/30 15:59:29;;;;;;;6.90;5.00;;;;;;;25.03;49.48;98659.56;7203880;40;21104;31
2023/06/30 16:05:05;;;;;;;6.78;5.40;;;;;;;24.92;50.57;98652.37;7206240;40;21106;31
2023/06/30 16:10:40;;;;;;;5.57;5.03;;;;;;;25.03;50.19;98651.28;7175225;40;20351;31
2023/06/30 16:16:03;;;;;;;5.73;5.03;;;;;;;25.00;50.62;98651.84;7195661;40;21097;31
2023/06/30 16:21:38;;;;;;;6.20;5.00;;;;;;;24.87;49.26;98649.63;7242708;40;21134;31
2023/06/30 16:27:12;;;;;;;5.55;4.95;;;;;;;24.86;50.40;98644.34;7198234;40;21114;31
2023/06/30 16:32:47;;;;;;;7.00;4.80;;;;;;;24.90;49.23;98640.78;7223035;40;20257;31
2023/06/30 16:38:18;;;;;;;4.90;4.43;;;;;;;24.88;50.44;98639.41;6966386;40;20240;31
2023/06/30 16:43:48;;;;;;;;;;;;;;;;;;;;;
2023/06/30 16:49:00;;;;;;;6.60;4.50;;;;;;;24.89;49.44;98617.06;7154642;40;20258;31
2023/06/30 16:54:34;;;;;;;5.97;4.45;;;;;;;24.95;49.17;98624.25;7165241;40;20508;31
2023/06/30 17:05:16;;;;;;;5.47;4.47;;;;;;;24.95;48.92;98634.44;7324099;39;21820;31
2023/06/30 17:10:52;;;;;;;4.70;3.73;;;;;;;24.93;49.71;98623.69;7303848;39;20300;31
2023/06/30 17:16:13;;;;;;;4.47;3.40;;;;;;;25.02;47.62;98635.84;7287104;40;21149;31
2023/06/30 17:21:33;;;;;;;8.45;3.60;;;;;;;25.08;47.02;98628.41;7275613;40;20257;31
2023/06/30 17:27:08;;;;;;;3.90;3.20;;;;;;;25.10;47.48;98631.69;7284013;39;21512;31
2023/06/30 17:32:25;;;;;;;4.00;3.00;;;;;;;25.12;47.31;98635.03;7289099;39;21130;31
2023/06/30 17:37:45;;;;;;;4.32;2.80;;;;;;;24.95;46.32;98635.28;7254538;40;21259;31
2023/06/30 17:43:18;;;;;;;2.90;2.60;;;;;;;24.91;46.27;98639.69;7268673;40;21049;31
2023/06/30 17:48:53;;;;;;;3.30;2.90;;;;;;;24.93;45.87;98643.00;7250489;40;21111;31
2023/06/30 17:59:31;;;;;;;3.87;2.90;;;;;;;24.82;47.00;98643.22;7249582;40;20276;31
2023/06/30 18:04:52;;;;;;;3.70;2.60;;;;;;;24.84;46.55;98650.09;7258460;40;21081;31
2023/06/30 18:10:26;;;;;;;4.12;2.42;;;;;;;24.78;44.79;98653.13;7259770;40;21310;31
2023/06/30 18:16:02;;;;;;;2.87;2.47;;;;;;;24.73;45.00;98662.22;7201784;40;20274;31
2023/06/30 18:21:39;;;;;;;3.22;2.47;;;;;;;24.72;44.70;98662.47;7235681;40;20383;31
2023/06/30 18:32:15;;;;;;;3.30;2.33;;;;;;;24.70;46.07;98668.28;7177148;40;20296;31
2023/06/30 18:37:50;;;;;;;3.87;2.23;;;;;;;24.68;45.34;98671.31;7240250;40;20333;31
2023/06/30 18:43:11;;;;;;;4.30;2.20;;;;;;;24.64;44.51;98672.94;7223071;40;21093;31
2023/06/30 18:48:43;;;;;;;3.40;2.30;;;;;;;24.49;43.77;98678.38;7239349;40;20304;31
2023/06/30 18:54:19;;;;;;;3.37;2.00;;;;;;;24.37;43.74;98690.72;7223119;40;20282;31
2023/06/30 18:59:39;;;;;;;3.77;1.70;;;;;;;24.34;43.61;98694.03;7203055;40;21013;31
2023/06/30 19:05:15;;;;;;;3.70;2.00;;;;;;;24.26;42.14;98687.12;7239774;40;21161;31
2023/06/30 19:10:50;;;;;;;5.00;2.10;;;;;;;24.21;43.33;98687.09;7239866;40;21598;31
2023/06/30 19:21:30;;;;;;;2.80;2.00;;;;;;;23.96;43.36;98704.22;7260105;40;20576;31
2023/06/30 19:26:50;;;;;;;3.53;1.83;;;;;;;24.06;44.44;98709.81;7223583;40;20261;31
2023/06/30 19:32:10;;;;;;;2.30;2.00;;;;;;;24.10;43.67;98716.44;7220943;40;21213;31
2023/06/30 19:37:41;;;;;;;3.40;2.20;;;;;;;24.01;43.72;98723.53;7233035;40;20230;31
2023/06/30 19:43:01;;;;;;;4.60;2.70;;;;;;;23.96;44.92;98725.47;7229656;40;21143;31
2023/06/30 19:48:37;;;;;;;7.70;2.20;;;;;;;23.84;45.48;98725.63;7311397;39;20999;31
2023/06/30 19:54:13;;;;;;;3.65;2.15;;;;;;;23.76;45.48;98737.13;7228190;40;21167;31
2023/06/30 20:04:52;;;;;;;7.17;2.30;;;;;;;23.60;46.40;98746.38;7182365;40;20406;31
2023/06/30 20:10:28;;;;;;;3.20;1.90;;;;;;;23.47;46.08;98744.88;7201514;40;20316;31
2023/06/30 20:15:48;;;;;;;2.55;1.95;;;;;;;23.40;46.11;98746.94;7198393;39;21034;31
2023/06/30 20:21:08;;;;;;;4.35;2.05;;;;;;;23.36;46.09;98743.91;7275016;39;20276;31
2023/06/30 20:31:49;;;;;;;4.80;2.10;;;;;;;23.21;46.76;98738.22;7286808;39;20311;31
2023/06/30 20:37:24;;;;;;;5.15;1.95;;;;;;;23.11;46.80;98743.66;7255575;40;20231;31
2023/06/30 20:42:43;;;;;;;5.63;2.33;;;;;;;22.96;47.84;98737.97;7217482;40;20335;31
2023/06/30 20:48:18;;;;;;;3.82;2.20;;;;;;;22.94;47.28;98737.41;7278095;40;20320;31
2023/06/30 20:53:38;;;;;;;2.85;2.15;;;;;;;22.91;47.30;98736.00;7245908;40;20420;31
2023/06/30 20:58:59;;;;;;;4.30;2.00;;;;;;;22.82;47.35;98740.28;7238379;40;21159;31
2023/06/30 21:04:36;;;;;;;4.95;2.12;;;;;;;22.72;48.22;98731.09;7263888;40;21082;31
2023/06/30 21:09:56;;;;;;;3.70;2.30;;;;;;;22.62;48.08;98737.25;7254141;39;21008;31
2023/06/30 21:15:17;;;;;;;4.40;2.00;;;;;;;22.59;47.57;98734.19;7252120;40;21099;31
2023/06/30 21:20:54;;;;;;;2.10;1.80;;;;;;;22.34;48.00;98734.69;7195770;40;21155;31
2023/06/30 21:26:23;;;;;;;3.65;1.85;;;;;;;22.18;47.78;98738.31;7137995;40;20381;31
2023/06/30 21:31:58;;;;;;;3.47;1.90;;;;;;;22.10;47.55;98733.25;7220195;40;21165;31
2023/06/30 21:42:36;;;;;;;2.47;1.90;;;;;;;21.91;48.45;98738.13;7297883;39;20268;31
2023/06/30 21:47:56;;;;;;;2.90;1.95;;;;;;;21.84;47.72;98737.50;7278842;40;20312;31
2023/06/30 21:53:30;;;;;;;4.28;2.05;;;;;;;21.63;47.49;98741.84;7287299;40;21173;31
2023/06/30 21:59:06;;;;;;;2.37;2.00;;;;;;;21.48;48.56;98736.06;7240591;40;21100;31
2023/06/30 22:04:42;;;;;;;2.95;1.80;;;;;;;21.38;48.11;98738.63;7245579;40;21146;31
2023/06/30 22:10:17;;;;;;;2.80;2.10;;;;;;;21.25;48.46;98736.19;7224457;40;21233;31
2023/06/30 22:15:53;;;;;;;3.03;2.10;;;;;;;21.15;48.22;98736.84;7258003;40;21025;31
2023/06/30 22:21:13;;;;;;;2.40;1.90;;;;;;;21.11;48.24;98738.38;7213543;40;21200;31
2023/06/30 22:26:33;;;;;;;2.97;1.75;;;;;;;21.10;48.48;98734.84;7223369;40;21095;31
2023/06/30 22:32:10;;;;;;;2.87;1.98;;;;;;;21.00;47.56;98729.16;7238790;39;21173;31
2023/06/30 22:37:44;;;;;;;2.70;1.98;;;;;;;20.91;48.72;98730.63;7237662;40;20302;31
2023/06/30 22:43:04;;;;;;;2.25;1.92;;;;;;;20.76;48.81;98729.47;7274710;40;21068;31
2023/06/30 22:48:40;;;;;;;2.42;1.90;;;;;;;20.62;47.73;98726.22;7266741;40;20319;31
2023/06/30 22:54:04;;;;;;;2.73;2.00;;;;;;;20.49;48.10;98726.47;7207062;40;21337;31
2023/06/30 22:59:36;;;;;;;5.65;2.00;;;;;;;20.48;48.79;98728.37;7269361;40;20287;31
2023/06/30 23:05:11;;;;;;;2.42;1.90;;;;;;;20.41;47.84;98727.66;7243765;40;20340;31
2023/06/30 23:10:45;;;;;;;2.28;1.70;;;;;;;20.21;48.56;98729.94;7244968;40;21205;31
2023/06/30 23:16:08;;;;;;;3.30;1.90;;;;;;;20.19;48.83;98735.66;7254528;40;20261;31
2023/06/30 23:21:44;;;;;;;2.66;2.00;;;;;;;20.08;48.89;98732.94;7239841;40;20346;31
2023/06/30 23:27:23;;;;;;;3.60;2.40;;;;;;;19.88;50.21;98730.53;7231341;40;20284;31
2023/06/30 23:32:56;;;;;;;3.78;1.95;;;;;;;19.79;49.80;98727.31;7024079;40;20264;31
2023/06/30 23:38:30;;;;;;;4.30;2.00;;;;;;;19.69;50.90;98726.28;7193892;40;21015;31
2023/06/30 23:44:02;;;;;;;2.97;2.10;;;;;;;19.50;50.39;98728.25;7228153;40;20260;31
2023/06/30 23:49:37;;;;;;;3.70;2.05;;;;;;;19.38;51.62;98721.91;7289156;40;20248;31
2023/06/30 23:55:14;;;;;;;2.43;2.10;;;;;;;19.28;50.96;98716.19;7216566;40;21313;31
